createdAt,value
2023-05-17T04:43:56.063Z,4.90
2023-05-17T04:46:32.480Z,5.00
2023-05-17T04:49:01.892Z,5.10
2023-05-17T04:51:32.695Z,5.20
2023-05-17T04:54:04.696Z,5.40
2023-05-17T04:56:34.100Z,5.40
2023-05-17T04:59:04.877Z,5.50
2023-05-17T05:01:35.520Z,5.70
2023-05-17T05:04:07.332Z,5.90
2023-05-17T05:06:42.353Z,5.90
2023-05-17T05:09:12.793Z,6.00
2023-05-17T05:11:42.500Z,6.10
2023-05-17T05:14:13.702Z,6.20
2023-05-17T05:16:43.778Z,6.30
2023-05-17T05:19:13.361Z,6.40
2023-05-17T05:21:42.985Z,6.50
2023-05-17T05:24:12.306Z,6.70
2023-05-17T05:26:41.790Z,6.90
2023-05-17T05:29:13.709Z,7.20
2023-05-17T05:31:42.702Z,7.40
2023-05-17T05:34:12.085Z,7.70
2023-05-17T05:36:41.148Z,8.00
2023-05-17T05:39:12.841Z,8.20
2023-05-17T05:41:41.972Z,8.50
2023-05-17T05:44:10.841Z,8.70
2023-05-17T05:46:41.313Z,9.00
2023-05-17T05:49:11.107Z,9.30
2023-05-17T05:51:40.635Z,9.50
2023-05-17T05:54:09.584Z,9.70
2023-05-17T05:56:38.587Z,9.80
2023-05-17T05:59:09.182Z,10.00
2023-05-17T06:01:38.366Z,10.10
2023-05-17T06:04:08.824Z,10.30
2023-05-17T06:06:38.560Z,10.50
2023-05-17T06:09:12.485Z,10.50
2023-05-17T06:11:41.528Z,10.50
2023-05-17T06:14:10.631Z,10.80
2023-05-17T06:16:39.953Z,11.10
2023-05-17T06:19:10.629Z,11.30
2023-05-17T06:21:39.729Z,11.60
2023-05-17T06:24:09.510Z,11.60
2023-05-17T06:26:38.846Z,11.70
2023-05-17T06:29:08.327Z,11.80
2023-05-17T06:31:37.580Z,11.80
2023-05-17T06:34:06.925Z,12.00
2023-05-17T06:36:38.687Z,12.10
2023-05-17T06:39:08.135Z,12.10
2023-05-17T06:41:40.705Z,12.10
2023-05-17T06:44:10.881Z,12.40
2023-05-17T06:46:40.102Z,12.50
2023-05-17T06:49:09.170Z,12.60
2023-05-17T06:51:39.875Z,12.80
2023-05-17T06:54:09.077Z,13.00
2023-05-17T06:56:38.869Z,13.30
2023-05-17T06:59:08.167Z,13.50
2023-05-17T07:01:37.388Z,13.80
2023-05-17T07:04:07.169Z,14.00
2023-05-17T07:06:36.916Z,14.20
2023-05-17T07:09:08.433Z,14.00
2023-05-17T07:11:37.422Z,14.10
2023-05-17T07:14:06.381Z,14.20
2023-05-17T07:16:38.685Z,14.00
2023-05-17T07:19:08.354Z,14.20
2023-05-17T07:21:37.552Z,14.30
2023-05-17T07:24:09.852Z,14.50
2023-05-17T07:26:39.323Z,14.50
2023-05-17T07:29:08.530Z,14.00
2023-05-17T07:31:37.828Z,13.90
2023-05-17T07:34:07.179Z,13.70
2023-05-17T07:36:36.593Z,13.60
2023-05-17T07:39:07.354Z,13.40
2023-05-17T07:41:36.549Z,13.00
2023-05-17T07:44:05.843Z,13.00
2023-05-17T07:46:35.329Z,12.80
2023-05-17T07:49:04.992Z,12.70
2023-05-17T07:51:34.491Z,12.60
2023-05-17T07:54:04.705Z,12.50
2023-05-17T07:56:35.216Z,12.50
2023-05-17T07:59:04.694Z,12.60
2023-05-17T08:01:35.330Z,13.00
2023-05-17T08:04:04.697Z,13.20
2023-05-17T08:06:34.264Z,13.10
2023-05-17T08:09:03.584Z,13.10
2023-05-17T08:11:35.171Z,13.20
2023-05-17T08:14:06.122Z,12.90
2023-05-17T08:16:35.562Z,12.70
2023-05-17T08:19:04.843Z,12.60
2023-05-17T08:21:34.030Z,12.60
2023-05-17T08:24:04.187Z,12.60
2023-05-17T08:26:33.512Z,12.60
2023-05-17T08:29:05.088Z,12.70
2023-05-17T08:31:34.344Z,12.90
2023-05-17T08:34:03.723Z,12.90
2023-05-17T08:36:32.791Z,12.90
2023-05-17T08:39:02.422Z,13.10
2023-05-17T08:41:31.620Z,13.60
2023-05-17T08:44:01.028Z,14.00
2023-05-17T08:46:32.254Z,14.50
2023-05-17T08:49:04.298Z,14.60
2023-05-17T08:51:34.184Z,14.50
2023-05-17T08:54:08.328Z,14.20
2023-05-17T08:56:40.708Z,14.10
2023-05-17T08:59:11.879Z,13.90
2023-05-17T09:01:44.628Z,14.00
2023-05-17T09:04:13.779Z,14.00
2023-05-17T09:06:44.200Z,13.90
2023-05-17T09:09:13.764Z,14.60
2023-05-17T09:11:43.024Z,14.80
2023-05-17T09:14:12.187Z,15.30
2023-05-17T09:16:44.041Z,15.60
2023-05-17T09:19:18.279Z,15.50
2023-05-17T09:21:50.516Z,15.20
2023-05-17T09:24:29.222Z,14.80
2023-05-17T09:27:03.728Z,14.70
2023-05-17T09:29:33.924Z,14.60
2023-05-17T09:32:16.746Z,14.40
2023-05-17T09:34:47.551Z,14.20
2023-05-17T09:37:17.928Z,14.20
2023-05-17T09:39:48.250Z,14.10
2023-05-17T09:42:18.381Z,14.20
2023-05-17T09:44:49.106Z,14.20
2023-05-17T09:47:37.779Z,14.20
2023-05-17T09:50:08.752Z,14.10
2023-05-17T09:52:38.267Z,14.20
2023-05-17T09:55:08.115Z,14.20
2023-05-17T09:57:40.784Z,13.90
2023-05-17T10:00:13.067Z,13.60
2023-05-17T10:02:48.201Z,13.60
2023-05-17T10:05:20.437Z,13.60
2023-05-17T10:07:52.037Z,13.60
2023-05-17T10:10:22.277Z,13.80
2023-05-17T10:12:52.592Z,13.90
2023-05-17T10:15:24.277Z,13.90
2023-05-17T10:17:55.849Z,14.00
2023-05-17T10:20:26.143Z,14.00
2023-05-17T10:22:58.843Z,13.90
2023-05-17T10:25:29.147Z,14.00
2023-05-17T10:27:59.532Z,14.00
2023-05-17T10:30:30.077Z,13.80
2023-05-17T10:33:02.094Z,13.80
2023-05-17T10:35:33.747Z,13.80
2023-05-17T10:38:03.095Z,13.90
2023-05-17T10:40:33.789Z,14.10
2023-05-17T10:43:04.158Z,14.10
2023-05-17T10:45:33.579Z,14.20
2023-05-17T10:48:07.893Z,14.10
2023-05-17T10:50:54.031Z,14.00
2023-05-17T10:53:30.185Z,13.90
2023-05-17T10:56:00.343Z,13.80
2023-05-17T10:58:30.377Z,13.80
2023-05-17T11:00:59.711Z,13.80
2023-05-17T11:03:34.209Z,13.90
2023-05-17T11:06:24.621Z,14.10
2023-05-17T11:09:16.429Z,14.50
2023-05-17T11:12:09.656Z,14.60
2023-05-17T11:14:54.510Z,14.60
2023-05-17T11:17:26.508Z,14.60
2023-05-17T11:20:06.410Z,14.40
2023-05-17T11:22:41.712Z,14.20
2023-05-17T11:25:15.361Z,14.00
2023-05-17T11:27:49.112Z,13.70
2023-05-17T11:30:22.624Z,13.70
2023-05-17T11:32:53.237Z,13.60
2023-05-17T11:35:28.260Z,13.80
2023-05-17T11:38:15.725Z,13.70
2023-05-17T11:40:45.663Z,13.60
2023-05-17T11:43:16.882Z,13.70
2023-05-17T11:45:49.382Z,13.60
2023-05-17T11:48:22.102Z,13.50
2023-05-17T11:50:56.699Z,13.60
2023-05-17T11:53:27.579Z,13.70
2023-05-17T11:55:57.556Z,13.70
2023-05-17T11:58:27.883Z,13.90
2023-05-17T12:00:58.426Z,14.00
2023-05-17T12:03:29.709Z,14.10
2023-05-17T12:06:11.058Z,14.20
2023-05-17T12:08:42.103Z,14.30
2023-05-17T12:11:14.952Z,14.20
2023-05-17T12:13:47.167Z,14.20
2023-05-17T12:16:18.557Z,13.90
2023-05-17T12:18:51.941Z,14.00
2023-05-17T12:21:23.839Z,14.00
2023-05-17T12:23:54.161Z,14.20
2023-05-17T12:26:24.316Z,14.20
2023-05-17T12:28:58.897Z,14.20
2023-05-17T12:31:31.581Z,14.20
2023-05-17T12:34:03.371Z,14.40
2023-05-17T12:36:35.207Z,14.50
2023-05-17T12:39:06.589Z,14.50
2023-05-17T12:41:36.566Z,14.60
2023-05-17T12:44:15.081Z,14.50
2023-05-17T12:46:46.003Z,14.60
2023-05-17T12:49:15.192Z,14.40
2023-05-17T12:51:47.223Z,14.40
2023-05-17T12:54:28.021Z,14.30
2023-05-17T12:56:57.657Z,14.30
2023-05-17T12:59:29.083Z,14.20
2023-05-17T13:02:00.965Z,14.10
2023-05-17T13:04:33.953Z,14.20
2023-05-17T13:07:07.145Z,14.20
2023-05-17T13:09:47.010Z,14.30
2023-05-17T13:12:23.063Z,14.30
2023-05-17T13:14:55.197Z,14.30
2023-05-17T13:17:28.437Z,14.30
2023-05-17T13:19:58.599Z,14.40
2023-05-17T13:22:29.872Z,14.20
2023-05-17T13:24:59.396Z,14.20
2023-05-17T13:27:29.765Z,14.10
2023-05-17T13:29:59.033Z,14.10
2023-05-17T13:32:29.475Z,14.20
2023-05-17T13:34:59.352Z,14.30
2023-05-17T13:37:30.833Z,14.50
2023-05-17T13:40:01.081Z,14.70
2023-05-17T13:42:30.826Z,14.80
2023-05-17T13:45:02.080Z,15.00
2023-05-17T13:47:32.652Z,15.20
2023-05-17T13:50:02.404Z,15.30
2023-05-17T13:52:33.359Z,15.40
2023-05-17T13:55:03.339Z,15.20
2023-05-17T13:57:32.913Z,15.20
2023-05-17T14:00:02.300Z,15.00
2023-05-17T14:02:34.391Z,14.80
2023-05-17T14:05:03.894Z,14.60
2023-05-17T14:07:35.824Z,14.60
2023-05-17T14:10:05.646Z,14.80
2023-05-17T14:12:35.372Z,14.70
2023-05-17T14:15:05.081Z,14.70
2023-05-17T14:17:34.535Z,14.80
2023-05-17T14:20:04.318Z,15.00
2023-05-17T14:22:35.603Z,15.00
2023-05-17T14:25:05.557Z,15.10
2023-05-17T14:27:35.302Z,15.20
2023-05-17T14:30:05.459Z,15.40
2023-05-17T14:32:36.291Z,15.60
2023-05-17T14:35:07.912Z,15.30
2023-05-17T14:37:38.959Z,15.30
2023-05-17T14:40:09.508Z,15.30
2023-05-17T14:42:38.891Z,15.20
2023-05-17T14:45:09.527Z,15.10
2023-05-17T14:47:39.082Z,15.10
2023-05-17T14:50:09.124Z,15.10
2023-05-17T14:52:40.282Z,15.10
2023-05-17T14:55:10.314Z,15.30
2023-05-17T14:57:40.590Z,15.40
2023-05-17T15:00:11.781Z,15.60
2023-05-17T15:02:41.317Z,15.80
2023-05-17T15:05:11.310Z,16.20
2023-05-17T15:07:42.712Z,16.20
2023-05-17T15:10:13.481Z,16.00
2023-05-17T15:12:42.660Z,15.60
2023-05-17T15:15:12.883Z,15.50
2023-05-17T15:17:41.970Z,15.30
2023-05-17T15:20:12.327Z,14.90
2023-05-17T15:22:42.845Z,14.70
2023-05-17T15:25:12.266Z,14.70
2023-05-17T15:27:56.581Z,14.60
2023-05-17T15:30:28.642Z,14.50
2023-05-17T15:32:58.116Z,14.80
2023-05-17T15:35:28.035Z,15.10
2023-05-17T15:38:00.041Z,15.20
2023-05-17T15:40:29.294Z,15.50
2023-05-17T15:42:58.394Z,15.70
2023-05-17T15:45:27.971Z,16.00
2023-05-17T15:47:57.571Z,15.90
2023-05-17T15:50:27.200Z,15.80
2023-05-17T15:52:57.977Z,15.80
2023-05-17T15:55:27.333Z,15.90
2023-05-17T15:57:57.616Z,16.10
2023-05-17T16:00:28.024Z,15.90
2023-05-17T16:02:57.299Z,15.70
2023-05-17T16:05:47.072Z,15.50
2023-05-17T16:08:25.799Z,15.30
2023-05-17T16:10:55.460Z,14.80
2023-05-17T16:13:25.560Z,14.70
2023-05-17T16:15:55.723Z,14.60
2023-05-17T16:18:25.929Z,14.80
2023-05-17T16:21:00.352Z,14.90
2023-05-17T16:23:31.735Z,15.00
2023-05-17T16:26:00.959Z,15.20
2023-05-17T16:28:32.038Z,15.50
2023-05-17T16:31:01.073Z,15.60
2023-05-17T16:33:30.125Z,15.50
2023-05-17T16:36:00.048Z,15.60
2023-05-17T16:38:30.890Z,15.60
2023-05-17T16:41:03.364Z,15.60
2023-05-17T16:43:33.028Z,15.80
2023-05-17T16:46:02.233Z,15.40
2023-05-17T16:48:31.519Z,15.10
2023-05-17T16:51:00.845Z,14.80
2023-05-17T16:53:31.866Z,14.60
2023-05-17T16:56:01.115Z,14.40
2023-05-17T16:58:30.509Z,14.20
2023-05-17T17:01:00.179Z,14.10
2023-05-17T17:03:29.548Z,14.00
2023-05-17T17:05:58.846Z,13.80
2023-05-17T17:08:28.503Z,13.60
2023-05-17T17:10:59.222Z,13.40
2023-05-17T17:13:28.706Z,13.30
2023-05-17T17:15:58.021Z,13.10
2023-05-17T17:18:27.678Z,13.10
2023-05-17T17:20:57.557Z,12.90
2023-05-17T17:23:26.922Z,12.80
2023-05-17T17:25:56.350Z,12.70
2023-05-17T17:28:27.111Z,12.70
2023-05-17T17:30:56.606Z,12.60
2023-05-17T17:33:26.114Z,12.60
2023-05-17T17:35:55.510Z,12.40
2023-05-17T17:38:24.723Z,12.30
2023-05-17T17:40:54.230Z,12.20
2023-05-17T17:43:24.286Z,12.20
2023-05-17T17:45:55.049Z,12.20
2023-05-17T17:48:24.761Z,12.20
2023-05-17T17:50:54.053Z,12.10
2023-05-17T17:53:23.610Z,12.00
2023-05-17T17:55:53.084Z,12.20
2023-05-17T17:58:22.277Z,12.30
2023-05-17T18:00:51.390Z,12.20
2023-05-17T18:03:22.589Z,12.20
2023-05-17T18:05:53.212Z,12.10
2023-05-17T18:08:24.605Z,12.00
2023-05-17T18:10:54.505Z,12.00
2023-05-17T18:13:24.681Z,11.90
2023-05-17T18:15:53.892Z,11.70
2023-05-17T18:18:25.644Z,11.50
2023-05-17T18:20:55.024Z,11.40
2023-05-17T18:23:24.555Z,11.30
2023-05-17T18:25:54.378Z,11.40
2023-05-17T18:28:33.867Z,11.30
2023-05-17T18:31:10.857Z,11.10
2023-05-17T18:33:41.722Z,11.00
2023-05-17T18:36:11.217Z,10.90
2023-05-17T18:38:40.689Z,10.90
2023-05-17T18:41:10.176Z,10.90
2023-05-17T18:43:39.271Z,10.70
2023-05-17T18:46:08.621Z,10.60
2023-05-17T18:48:39.093Z,10.30
2023-05-17T18:51:09.932Z,10.20
2023-05-17T18:53:39.492Z,10.00
2023-05-17T18:56:08.874Z,9.80
2023-05-17T18:58:37.886Z,9.70
2023-05-17T19:01:07.045Z,9.50
2023-05-17T19:03:36.156Z,9.40
2023-05-17T19:06:05.576Z,9.40
2023-05-17T19:08:36.418Z,9.20
2023-05-17T19:11:07.179Z,9.10
2023-05-17T19:13:36.464Z,9.00
2023-05-17T19:16:06.518Z,8.90
2023-05-17T19:18:36.406Z,8.80
2023-05-17T19:21:06.981Z,8.70
2023-05-17T19:23:38.174Z,8.60
2023-05-17T19:26:07.674Z,8.50
2023-05-17T19:28:37.170Z,8.40
2023-05-17T19:31:06.561Z,8.30
2023-05-17T19:33:37.913Z,8.30
2023-05-17T19:36:07.481Z,8.20
2023-05-17T19:38:38.914Z,8.20
2023-05-17T19:41:10.004Z,8.10
2023-05-17T19:43:39.607Z,7.90
2023-05-17T19:46:10.991Z,8.00
2023-05-17T19:48:40.402Z,7.80
2023-05-17T19:51:09.599Z,7.70
2023-05-17T19:53:51.721Z,7.60
2023-05-17T19:56:22.488Z,7.50
2023-05-17T19:58:52.655Z,7.50
2023-05-17T20:01:23.199Z,7.40
2023-05-17T20:03:53.281Z,7.40
2023-05-17T20:06:23.248Z,7.20
2023-05-17T20:08:54.162Z,7.10
2023-05-17T20:11:23.389Z,7.10
2023-05-17T20:13:52.516Z,7.00
2023-05-17T20:16:21.952Z,7.00
2023-05-17T20:18:51.299Z,7.00
2023-05-17T20:21:20.691Z,6.90
2023-05-17T20:23:51.627Z,6.80
2023-05-17T20:26:26.110Z,6.80
2023-05-17T20:28:55.519Z,6.80
2023-05-17T20:31:24.900Z,6.70
2023-05-17T20:33:55.232Z,6.70
2023-05-17T20:36:24.470Z,6.60
2023-05-17T20:38:53.854Z,6.60
2023-05-17T20:41:24.432Z,6.50
2023-05-17T20:43:54.343Z,6.50
2023-05-17T20:46:23.778Z,6.50
2023-05-17T20:48:53.994Z,6.40
2023-05-17T20:51:23.586Z,6.40
2023-05-17T20:53:52.877Z,6.30
2023-05-17T20:56:23.680Z,6.30
2023-05-17T20:58:52.879Z,6.30
2023-05-17T21:01:22.850Z,6.30
2023-05-17T21:03:52.767Z,6.20
2023-05-17T21:06:22.548Z,6.10
2023-05-17T21:08:52.557Z,6.10
2023-05-17T21:11:22.394Z,6.00
2023-05-17T21:13:53.042Z,6.00
2023-05-17T21:16:22.215Z,6.00
2023-05-17T21:18:51.827Z,5.90
2023-05-17T21:21:21.523Z,5.90
2023-05-17T21:23:50.888Z,5.80
2023-05-17T21:26:19.869Z,5.80
2023-05-17T21:28:49.112Z,5.80
2023-05-17T21:31:20.949Z,5.80
2023-05-17T21:33:50.549Z,5.70
2023-05-17T21:36:22.429Z,5.70
2023-05-17T21:38:51.597Z,5.60
2023-05-17T21:41:21.867Z,5.60
2023-05-17T21:43:51.443Z,5.50
2023-05-17T21:46:22.842Z,5.50
2023-05-17T21:48:52.644Z,5.30
2023-05-17T21:51:22.277Z,5.30
2023-05-17T21:53:51.753Z,5.30
2023-05-17T21:56:22.165Z,5.20
2023-05-17T21:58:53.022Z,5.20
2023-05-17T22:01:24.498Z,5.20
2023-05-17T22:03:55.386Z,5.20
2023-05-17T22:06:24.903Z,5.20
2023-05-17T22:08:56.641Z,5.10
2023-05-17T22:11:27.822Z,5.10
2023-05-17T22:13:56.952Z,5.00
2023-05-17T22:16:34.380Z,5.00
2023-05-17T22:19:08.455Z,5.00
2023-05-17T22:21:42.088Z,4.90
2023-05-17T22:24:16.010Z,4.90
2023-05-17T22:26:49.346Z,4.90
2023-05-17T22:29:22.790Z,4.90
2023-05-17T22:31:58.777Z,4.80
2023-05-17T22:34:32.347Z,4.80
2023-05-17T22:37:04.958Z,4.80
2023-05-17T22:39:38.195Z,4.70
2023-05-17T22:42:12.729Z,4.70
2023-05-17T22:44:47.778Z,4.60
2023-05-17T22:47:28.201Z,4.60
2023-05-17T22:50:02.016Z,4.70
2023-05-17T22:52:36.368Z,4.70
2023-05-17T22:55:12.785Z,4.70
2023-05-17T22:57:46.436Z,4.60
2023-05-17T23:00:19.898Z,4.60
2023-05-17T23:02:55.231Z,4.70
2023-05-17T23:05:27.990Z,4.60
2023-05-17T23:08:02.436Z,4.60
2023-05-17T23:10:35.563Z,4.50
2023-05-17T23:13:08.318Z,4.50
2023-05-17T23:15:42.186Z,4.40
2023-05-17T23:18:18.518Z,4.40
2023-05-17T23:20:53.571Z,4.40
2023-05-17T23:23:26.915Z,4.30
2023-05-17T23:26:02.087Z,4.30
2023-05-17T23:28:45.177Z,4.30
2023-05-17T23:31:18.905Z,4.30
2023-05-17T23:33:59.463Z,4.20
2023-05-17T23:36:32.815Z,4.40
2023-05-17T23:39:06.070Z,4.30
2023-05-17T23:41:40.285Z,4.40
2023-05-17T23:44:13.272Z,4.40
2023-05-17T23:46:47.835Z,4.40
2023-05-17T23:49:24.330Z,4.30
2023-05-17T23:51:58.290Z,4.40
2023-05-17T23:54:32.751Z,4.40
2023-05-17T23:57:05.488Z,4.40
2023-05-17T23:59:39.671Z,4.40
